Aérodrome :
LOGIN :

S'inscrire | Disclaimer

   EN    FR    IT 

 










Légende :    VFR   VFR Marginal   IFR   IFR Intensif   IFR Très Intensif
Visi : 
Plafond : 
>= 8 km
>= 3000ft
5 à 8 km
1000 à 3000 ft
1500m à 5 km
500 à 1000 ft
800 à 1500m
200 à 500 ft
< 800m
< 200 ft
Symboles :   Orages  Brouillard  Fortes neiges  Fortes précipitations  Vent > 20 kt
SIGMETs :   Divers  Orages  Givrage  Turbulence  Onde Orograph.  Cendres Volcan.






- Altitude de l'aérodrome : 464 ft
- Code IATA : EVX


LFOE - Evreux

DERNIER METAR :
  • 241800Z AUTO 23018G28KT 200V260 9999 BKN018 OVC025 11/08 Q1013 TEMPO 4000 -RA BECMG BKN008

METARs EXPIRÉS :
  • 241730Z AUTO 23016KT 9999 BKN026 OVC033 12/08 Q1013 TEMPO 4000 -RA BECMG 22020G30KT BKN008
  • 241700Z AUTO 22017KT 9999 OVC038 12/07 Q1013 TEMPO 4000 -RA BECMG 22020G30KT BKN008
  • 241630Z AUTO 23018G29KT 9999 SCT043 OVC240 12/07 Q1013 TEMPO 4000 -RA BECMG BKN008
  • 241600Z AUTO 24018KT 9999 BKN032 OVC039 13/07 Q1013 BECMG 22020G30KT BKN008
  • 241530Z AUTO 24019G31KT 9999 BKN030 OVC037 13/07 Q1014 BECMG BKN008

TAF TAF LFOE
Valide du 24 à 15h jusqu'au 25 à 15h UTC


241400Z 2415/2515 22020G30KT 9999 BKN025
TEMPO 2415/2417 24020G35KT
BECMG 2417/2418 BKN008
TEMPO 2418/2422 4000 -RA
TEMPO 2422/2501 4000 -SHRA
BECMG 2501/2503 28015G25KT SCT025
TEMPO 2508/2511 4000 -SHRA BKN020TCU
TEMPO 2513/2515 27020G40KT 3000 -SHRAGS BKN015CB



MET'MAP, la Météo Aéronautique d'un coup d'oeil ! - Copyright ORBIFLY Décembre 2007 - Disclaimer

ORBIFLY MET'MAP TEAM :

Programmation & Développement : Alexandra Zaïnal
Sur une idée originale de : Baudouin d'Aumeries
Assistance à la programmation : Marc-Olivier Méhu
Soutien technique & logistique : Manuel Goepfert

Contact : metmap@orbifly.com




SOURCES & CREDITS :

   NOAA